Time;durP1;ratioP1;P1;durP2;ratioP2;P2;SDS_P1;SDS_P2;PMS_P1;PMS_P2;Temp;Humidity;BMP_temperature;BMP_pressure;BME280_temperature;BME280_humidity;BME280_pressure;Samples;Min_cycle;Max_cycle;Signal;HPM_P1;HPM_P2
2022/12/05 00:01:21;;;;;;;125.78;54.85;;;179.70;2252.80;;;;;;5048130;28;20449;-89
2022/12/05 00:03:48;;;;;;;67.28;33.92;;;179.70;2252.80;;;;;;5035466;28;20022;-89
2022/12/05 00:06:15;;;;;;;70.05;31.15;;;179.60;2252.80;;;;;;5036634;28;20029;-87
2022/12/05 00:08:41;;;;;;;44.33;22.00;;;179.60;2252.80;;;;;;5034676;28;20026;-89
2022/12/05 00:11:15;;;;;;;49.28;24.40;;;179.60;2252.80;;;;;;5034965;28;20025;-91
2022/12/05 00:13:42;;;;;;;122.70;49.70;;;179.50;2252.80;;;;;;5035202;28;20026;-90
2022/12/05 00:16:10;;;;;;;119.13;48.95;;;179.20;2252.80;;;;;;5034640;28;20069;-89
2022/12/05 00:18:36;;;;;;;96.25;41.65;;;179.40;2252.80;;;;;;5034827;28;20052;-89
2022/12/05 00:21:02;;;;;;;113.78;48.05;;;179.50;2252.80;;;;;;5034790;28;20462;-89
2022/12/05 00:23:28;;;;;;;89.05;50.13;;;179.40;2252.80;;;;;;5036240;28;20021;-90
2022/12/05 00:25:54;;;;;;;77.20;42.15;;;179.40;2252.80;;;;;;5034249;28;20052;-92
2022/12/05 00:28:20;;;;;;;97.95;47.83;;;179.40;2252.80;;;;;;5033959;28;20405;-90
2022/12/05 00:30:46;;;;;;;183.57;74.80;;;179.30;2252.80;;;;;;5034294;28;20060;-88
2022/12/05 00:33:11;;;;;;;199.07;84.85;;;179.40;2252.80;;;;;;5033752;28;20029;-90
2022/12/05 00:35:37;;;;;;;131.82;60.65;;;179.40;2252.80;;;;;;5033783;28;20096;-90
2022/12/05 00:38:03;;;;;;;120.18;51.55;;;179.40;2252.80;;;;;;5034527;28;20040;-91
2022/12/05 00:40:29;;;;;;;117.35;57.20;;;179.40;2252.80;;;;;;5034347;28;20032;-89
2022/12/05 00:42:55;;;;;;;179.70;77.57;;;179.20;2252.80;;;;;;5034564;28;20029;-91
2022/12/05 00:45:21;;;;;;;165.98;72.97;;;179.40;2252.80;;;;;;5032091;28;20033;-90
2022/12/05 00:47:47;;;;;;;98.03;50.85;;;179.40;2252.80;;;;;;5034806;28;20481;-91
2022/12/05 00:50:12;;;;;;;113.30;51.33;;;179.30;2252.80;;;;;;5036192;28;20036;-91
2022/12/05 00:52:38;;;;;;;110.38;54.22;;;179.20;2252.80;;;;;;5035810;28;20358;-90
2022/12/05 00:55:04;;;;;;;98.40;49.65;;;179.20;2252.80;;;;;;5035820;28;20470;-92
2022/12/05 00:57:31;;;;;;;92.63;46.80;;;179.30;2252.80;;;;;;5034929;28;20021;-89
2022/12/05 00:59:57;;;;;;;82.10;41.72;;;179.30;2252.80;;;;;;5034233;28;20029;-90
2022/12/05 01:02:22;;;;;;;84.45;40.30;;;179.30;2252.80;;;;;;5034278;28;20124;-90
2022/12/05 01:04:48;;;;;;;68.75;33.25;;;179.30;2252.80;;;;;;5034601;28;20460;-90
2022/12/05 01:07:14;;;;;;;59.65;32.85;;;179.40;2252.80;;;;;;5034009;28;20029;-90
2022/12/05 01:09:40;;;;;;;60.97;31.02;;;179.30;2252.80;;;;;;5033802;28;20025;-92
2022/12/05 01:12:06;;;;;;;57.13;29.80;;;179.20;2252.80;;;;;;5033676;28;20064;-91
2022/12/05 01:14:32;;;;;;;86.78;38.03;;;179.20;2252.80;;;;;;5033448;28;20099;-92
2022/12/05 01:16:58;;;;;;;67.32;34.22;;;154.40;2252.80;;;;;;5033619;28;20548;-91
2022/12/05 01:19:27;;;;;;;80.25;36.75;;;179.20;2252.80;;;;;;5033378;28;20071;-91
2022/12/05 01:21:53;;;;;;;60.25;30.02;;;154.40;2252.80;;;;;;5033573;28;20026;-90
2022/12/05 01:24:20;;;;;;;32.28;19.98;;;154.50;2252.80;;;;;;5033559;28;20036;-92
2022/12/05 01:26:47;;;;;;;34.85;20.17;;;154.50;2252.80;;;;;;5033607;28;20033;-89
2022/12/05 01:29:15;;;;;;;35.60;18.02;;;154.50;2252.80;;;;;;5033182;28;20358;-90
2022/12/05 01:31:41;;;;;;;55.00;22.15;;;154.50;2252.80;;;;;;5033243;28;20030;-90
2022/12/05 01:34:10;;;;;;;56.10;22.58;;;154.40;2252.80;;;;;;5034410;28;20049;-90
2022/12/05 01:36:38;;;;;;;44.25;19.38;;;154.40;2252.80;;;;;;5036835;28;20034;-91
2022/12/05 01:39:04;;;;;;;131.57;44.17;;;154.50;2252.80;;;;;;5037396;28;20393;-90
2022/12/05 01:41:34;;;;;;;94.88;38.05;;;154.40;2252.80;;;;;;5037105;28;20064;-91
2022/12/05 01:44:14;;;;;;;86.93;34.00;;;154.40;2252.80;;;;;;5037366;28;20021;-90
2022/12/05 01:46:44;;;;;;;74.57;33.28;;;154.40;2252.80;;;;;;5036806;28;20120;-90
2022/12/05 01:49:14;;;;;;;72.32;36.60;;;154.30;2252.80;;;;;;5037386;28;20383;-91
2022/12/05 01:51:44;;;;;;;85.70;45.90;;;154.40;2252.80;;;;;;5036677;28;20128;-89
2022/12/05 01:54:11;;;;;;;92.25;46.03;;;154.20;2252.80;;;;;;5038097;28;20588;-91
2022/12/05 01:56:40;;;;;;;71.13;34.33;;;154.30;2252.80;;;;;;5036795;28;20029;-90
2022/12/05 01:59:09;;;;;;;67.03;33.20;;;154.30;2252.80;;;;;;5036543;28;20074;-90
2022/12/05 02:01:35;;;;;;;73.68;36.60;;;154.30;2252.80;;;;;;5037062;28;20488;-90
2022/12/05 02:04:01;;;;;;;69.75;32.70;;;154.30;2252.80;;;;;;5036876;28;20021;-90
2022/12/05 02:06:27;;;;;;;59.05;29.27;;;154.40;2252.80;;;;;;5040893;28;20096;-90
2022/12/05 02:08:54;;;;;;;49.33;24.48;;;154.40;2252.80;;;;;;5050076;28;20029;-91
2022/12/05 02:11:22;;;;;;;47.80;22.92;;;154.30;2252.80;;;;;;5049764;28;20029;-90
2022/12/05 02:14:34;;;;;;;46.28;22.80;;;154.30;2252.80;;;;;;5054338;28;20036;-90
2022/12/05 02:17:06;;;;;;;35.58;21.17;;;154.30;2252.80;;;;;;5052540;28;20036;-90
2022/12/05 02:19:35;;;;;;;53.47;26.83;;;154.40;2252.80;;;;;;5052839;28;20041;-91
2022/12/05 02:22:46;;;;;;;53.47;28.25;;;154.40;2252.80;;;;;;5040002;28;20022;-90
2022/12/05 02:25:39;;;;;;;102.10;49.05;;;154.30;2252.80;;;;;;5017347;28;20037;-90
2022/12/05 02:28:12;;;;;;;80.00;46.33;;;154.10;2252.80;;;;;;5035847;28;20025;-90
2022/12/05 02:30:53;;;;;;;70.80;41.15;;;154.10;2252.80;;;;;;5036089;28;20032;-90
2022/12/05 02:33:42;;;;;;;64.35;36.70;;;154.10;2252.80;;;;;;5035876;28;20367;-92
2022/12/05 02:36:16;;;;;;;68.53;36.78;;;154.10;2252.80;;;;;;5028436;28;20072;-91
2022/12/05 02:39:11;;;;;;;58.70;31.63;;;154.20;2252.80;;;;;;5016696;28;20029;-89
2022/12/05 02:41:57;;;;;;;61.70;29.63;;;154.20;2252.80;;;;;;5015574;28;20025;-90
2022/12/05 02:44:49;;;;;;;100.53;41.85;;;154.10;2252.80;;;;;;5015615;28;20037;-91
2022/12/05 02:47:20;;;;;;;46.80;23.60;;;154.10;2252.80;;;;;;5011608;28;20443;-91
2022/12/05 02:49:50;;;;;;;36.00;18.98;;;154.10;2252.80;;;;;;5016359;28;20125;-90
2022/12/05 02:52:17;;;;;;;33.97;19.63;;;154.10;2252.80;;;;;;5016068;28;20473;-91
2022/12/05 02:54:47;;;;;;;26.23;14.68;;;154.10;2252.80;;;;;;5015899;28;20026;-91
2022/12/05 02:57:15;;;;;;;30.50;15.80;;;154.20;2252.80;;;;;;5015724;28;20079;-90
2022/12/05 02:59:41;;;;;;;38.72;18.40;;;154.10;2252.80;;;;;;5015721;28;20018;-90
2022/12/05 03:02:26;;;;;;;39.22;17.83;;;154.20;2252.80;;;;;;5015750;28;20033;-90
2022/12/05 03:04:53;;;;;;;41.90;19.23;;;154.30;2252.80;;;;;;5029319;28;20060;-91
2022/12/05 03:07:22;;;;;;;42.20;23.25;;;154.30;2252.80;;;;;;5035381;28;20034;-91
2022/12/05 03:10:00;;;;;;;32.83;20.00;;;154.40;2252.80;;;;;;5035338;28;20112;-90
2022/12/05 03:12:34;;;;;;;28.92;17.25;;;154.50;2252.80;;;;;;5035296;28;20056;-90
2022/12/05 03:15:16;;;;;;;23.85;14.70;;;154.40;2252.80;;;;;;5035278;28;20128;-90
2022/12/05 03:17:56;;;;;;;42.88;21.33;;;154.30;2252.80;;;;;;5035262;28;20477;-90
2022/12/05 03:20:28;;;;;;;23.27;15.07;;;154.30;2252.80;;;;;;5035211;28;20021;-90
2022/12/05 03:23:00;;;;;;;56.20;22.95;;;154.10;2252.80;;;;;;5035166;28;20025;-90
2022/12/05 03:25:39;;;;;;;107.03;37.83;;;154.20;2252.80;;;;;;5034977;28;20037;-90
2022/12/05 03:28:18;;;;;;;81.75;27.50;;;154.20;2252.80;;;;;;5035003;28;20028;-90
2022/12/05 03:30:47;;;;;;;153.23;45.60;;;154.00;2252.80;;;;;;5035061;28;20029;-92
2022/12/05 03:33:22;;;;;;;108.60;35.53;;;154.20;2252.80;;;;;;5034744;28;20029;-92
2022/12/05 03:35:48;;;;;;;93.07;34.20;;;154.10;2252.80;;;;;;5034158;28;20053;-92
2022/12/05 03:38:21;;;;;;;62.92;27.67;;;154.20;2252.80;;;;;;5034541;28;20488;-92
2022/12/05 03:40:52;;;;;;;47.33;20.50;;;154.30;2252.80;;;;;;5034830;28;20026;-90
2022/12/05 03:43:48;;;;;;;31.33;15.27;;;154.30;2252.80;;;;;;5034347;28;20026;-91
2022/12/05 03:46:23;;;;;;;24.55;14.65;;;154.30;2252.80;;;;;;5058073;28;20029;-89
2022/12/05 03:48:55;;;;;;;27.58;15.05;;;154.30;2252.80;;;;;;5059085;28;20014;-88
2022/12/05 03:51:30;;;;;;;23.65;14.00;;;154.30;2252.80;;;;;;5048338;28;20088;-90
2022/12/05 03:54:08;;;;;;;27.80;15.40;;;154.30;2252.80;;;;;;5035480;28;20037;-90
2022/12/05 03:56:38;;;;;;;18.92;12.07;;;154.30;2252.80;;;;;;5033976;28;20048;-90
2022/12/05 03:59:17;;;;;;;16.20;10.30;;;154.10;2252.80;;;;;;5034493;28;20029;-92
2022/12/05 04:01:46;;;;;;;23.40;12.50;;;154.00;2252.80;;;;;;5034221;28;20412;-92
2022/12/05 04:04:23;;;;;;;28.20;14.80;;;153.90;2252.80;;;;;;5034431;28;20029;-90
2022/12/05 04:06:52;;;;;;;25.98;14.70;;;153.90;2252.80;;;;;;5034212;28;20030;-91
2022/12/05 04:09:24;;;;;;;28.27;14.93;;;153.90;2252.80;;;;;;5034559;28;20585;-91
2022/12/05 04:11:59;;;;;;;24.52;14.07;;;154.00;2252.80;;;;;;5035152;28;20120;-91
2022/12/05 04:14:32;;;;;;;23.00;13.50;;;153.90;2252.80;;;;;;5036042;28;20034;-91
2022/12/05 04:17:07;;;;;;;52.72;27.90;;;153.90;2252.80;;;;;;5035595;28;20036;-91
2022/12/05 04:22:49;;;;;;;30.13;18.33;;;153.90;2252.80;;;;;;5034789;28;20056;-92
2022/12/05 04:25:32;;;;;;;26.30;16.08;;;154.00;2252.80;;;;;;5033790;28;20465;-90
2022/12/05 04:28:26;;;;;;;22.73;12.32;;;154.00;2252.80;;;;;;5033580;28;20036;-90
2022/12/05 04:31:06;;;;;;;23.90;13.30;;;153.90;2252.80;;;;;;5033519;28;20111;-91
2022/12/05 04:33:49;;;;;;;50.88;28.17;;;153.90;2252.80;;;;;;5034203;28;20454;-89
2022/12/05 04:36:18;;;;;;;34.90;19.85;;;154.00;2252.80;;;;;;5032926;28;20033;-90
2022/12/05 04:38:58;;;;;;;20.48;13.85;;;153.80;2252.80;;;;;;5033474;28;20409;-90
2022/12/05 04:41:36;;;;;;;23.92;14.13;;;;;;;;;;5016446;28;20064;-90
2022/12/05 04:44:05;;;;;;;22.15;13.30;;;;;;;;;;5017126;28;20480;-90
2022/12/05 04:46:32;;;;;;;19.30;12.00;;;;;;;;;;5016606;28;20040;-90
2022/12/05 04:49:00;;;;;;;21.90;12.07;;;;;;;;;;5049774;28;20022;-89
2022/12/05 04:51:29;;;;;;;27.75;16.25;;;;;;;;;;5049282;28;20026;-90
2022/12/05 04:54:01;;;;;;;24.65;16.45;;;;;;;;;;5049713;28;20441;-90
2022/12/05 04:56:29;;;;;;;24.23;15.38;;;;;;;;;;5049669;28;20499;-91
2022/12/05 04:58:55;;;;;;;25.75;15.05;;;;;;;;;;5049867;28;20025;-90
2022/12/05 05:01:24;;;;;;;28.05;17.73;;;;;;;;;;5049796;28;20022;-89
2022/12/05 05:04:11;;;;;;;26.80;18.05;;;;;;;;;;5050361;28;20030;-90
2022/12/05 05:06:39;;;;;;;25.27;18.00;;;;;;;;;;5050961;28;20029;-90
2022/12/05 05:09:05;;;;;;;26.38;17.55;;;;;;;;;;5053365;28;20025;-90
2022/12/05 05:11:33;;;;;;;32.15;20.75;;;;;;;;;;5053927;28;20115;-90
2022/12/05 05:13:59;;;;;;;29.83;21.33;;;153.90;2252.80;;;;;;5053878;28;20028;-90
2022/12/05 05:16:28;;;;;;;42.63;26.73;;;153.80;2252.80;;;;;;5053870;28;20034;-92
2022/12/05 05:18:54;;;;;;;49.72;30.02;;;153.80;2252.80;;;;;;5054300;28;20052;-89
2022/12/05 05:21:32;;;;;;;51.70;30.90;;;153.70;2252.80;;;;;;5054012;28;20029;-91
2022/12/05 05:23:59;;;;;;;44.78;29.27;;;153.80;2252.80;;;;;;5053412;28;20026;-89
2022/12/05 05:26:26;;;;;;;50.20;32.55;;;153.90;2252.80;;;;;;5053419;28;20034;-90
2022/12/05 05:28:53;;;;;;;61.03;35.83;;;153.90;2252.80;;;;;;5053319;28;20021;-90
2022/12/05 05:31:19;;;;;;;67.60;41.00;;;154.10;2252.80;;;;;;5053124;28;20038;-89
2022/12/05 05:33:53;;;;;;;68.85;42.63;;;154.00;2252.80;;;;;;5053405;28;20064;-92
2022/12/05 05:36:21;;;;;;;59.75;35.60;;;153.90;2252.80;;;;;;5062107;28;20037;-90
2022/12/05 05:38:50;;;;;;;68.43;42.95;;;154.00;2252.80;;;;;;5039771;28;20038;-89
2022/12/05 05:41:17;;;;;;;135.85;71.80;;;154.00;2252.80;;;;;;5039455;28;20384;-90
2022/12/05 05:43:43;;;;;;;148.43;78.95;;;154.10;2252.80;;;;;;5039659;28;20039;-90
2022/12/05 05:46:09;;;;;;;134.38;72.53;;;153.90;2252.80;;;;;;5034971;28;20037;-91
2022/12/05 05:48:36;;;;;;;105.68;59.28;;;153.90;2252.80;;;;;;5036363;28;20242;-89
2022/12/05 05:51:03;;;;;;;123.65;61.15;;;153.90;2252.80;;;;;;5035909;28;20022;-90
2022/12/05 05:53:29;;;;;;;152.25;78.47;;;153.90;2252.80;;;;;;5036521;28;20120;-90
2022/12/05 05:55:55;;;;;;;170.35;85.65;;;153.80;2252.80;;;;;;5036471;28;20363;-89
2022/12/05 05:58:21;;;;;;;192.25;93.25;;;153.90;2252.80;;;;;;5036121;28;20018;-89
2022/12/05 06:00:47;;;;;;;222.13;107.45;;;154.00;2252.80;;;;;;5036418;28;20057;-89
2022/12/05 06:03:13;;;;;;;196.23;97.75;;;153.90;2252.80;;;;;;5036635;28;20410;-90
2022/12/05 06:05:39;;;;;;;174.30;88.72;;;153.90;2252.80;;;;;;5036733;28;20359;-90
2022/12/05 06:08:05;;;;;;;178.07;90.82;;;153.90;2252.80;;;;;;5037231;28;20086;-90
2022/12/05 06:10:31;;;;;;;164.32;91.28;;;154.00;2252.80;;;;;;5037700;28;20037;-89
2022/12/05 06:12:58;;;;;;;166.75;89.05;;;154.00;2252.80;;;;;;5038354;28;20022;-89
2022/12/05 06:15:24;;;;;;;155.60;79.88;;;154.00;2252.80;;;;;;5039989;28;20029;-90
2022/12/05 06:17:50;;;;;;;131.63;69.30;;;154.00;2252.80;;;;;;5039513;28;20029;-89
2022/12/05 06:20:16;;;;;;;124.78;67.38;;;154.00;2252.80;;;;;;5039388;28;20033;-91
2022/12/05 06:22:42;;;;;;;132.75;77.97;;;154.10;2252.80;;;;;;5041129;28;20025;-90
2022/12/05 06:25:09;;;;;;;125.30;76.22;;;154.10;2252.80;;;;;;5039300;28;20086;-89
2022/12/05 06:27:35;;;;;;;105.53;62.25;;;154.10;2252.80;;;;;;5039715;28;20025;-90
2022/12/05 06:30:01;;;;;;;94.40;60.47;;;;;;;;;;5040397;28;20025;-91
2022/12/05 06:32:28;;;;;;;86.88;54.50;;;154.40;2252.80;;;;;;5048047;28;20025;-90
2022/12/05 06:34:54;;;;;;;92.00;55.33;;;154.30;2252.80;;;;;;5053596;28;20053;-89
2022/12/05 06:37:20;;;;;;;74.20;44.90;;;154.20;2252.80;;;;;;5062882;28;20101;-89
2022/12/05 06:39:46;;;;;;;55.03;35.30;;;154.20;2252.80;;;;;;5062729;28;20033;-89
2022/12/05 06:42:12;;;;;;;54.70;37.92;;;154.10;2252.80;;;;;;5063169;28;20014;-88
2022/12/05 06:44:38;;;;;;;79.10;49.00;;;154.20;2252.80;;;;;;5058901;28;20544;-89
2022/12/05 06:47:04;;;;;;;85.80;53.20;;;154.30;2252.80;;;;;;5059410;28;20059;-88
2022/12/05 06:49:32;;;;;;;82.32;50.88;;;;;;;;;;5059792;28;20053;-89
2022/12/05 06:52:01;;;;;;;62.40;42.80;;;179.20;2252.80;;;;;;5058269;28;20024;-89
2022/12/05 06:54:27;;;;;;;105.28;69.18;;;;;;;;;;5047902;28;20070;-89
2022/12/05 06:56:53;;;;;;;99.15;59.15;;;179.30;2252.80;;;;;;5038495;28;20033;-90
2022/12/05 06:59:19;;;;;;;89.13;55.53;;;179.30;2252.80;;;;;;5038562;28;20362;-90
2022/12/05 07:01:45;;;;;;;86.00;52.00;;;179.30;2252.80;;;;;;5039933;28;20064;-90
2022/12/05 07:04:14;;;;;;;118.65;75.13;;;179.30;2252.80;;;;;;5038704;28;20035;-90
2022/12/05 07:06:41;;;;;;;148.23;93.38;;;179.40;2252.80;;;;;;5038588;28;20029;-90
2022/12/05 07:09:07;;;;;;;166.80;107.80;;;179.40;2252.80;;;;;;5038547;28;20029;-89
2022/12/05 07:11:33;;;;;;;148.07;95.53;;;179.40;2252.80;;;;;;5038630;28;20086;-89
2022/12/05 07:13:59;;;;;;;132.63;86.63;;;179.50;2252.80;;;;;;5038264;28;20036;-88
2022/12/05 07:16:25;;;;;;;131.95;82.60;;;179.50;2252.80;;;;;;5038559;28;20033;-89
2022/12/05 07:18:51;;;;;;;135.70;85.32;;;179.60;2252.80;;;;;;5038222;28;20068;-90
2022/12/05 07:21:19;;;;;;;152.23;91.53;;;179.60;2252.80;;;;;;5038066;28;20025;-90
2022/12/05 07:23:45;;;;;;;138.18;90.55;;;179.50;2252.80;;;;;;5038094;28;20059;-90
2022/12/05 07:26:14;;;;;;;143.45;91.38;;;179.50;2252.80;;;;;;5038205;28;20087;-90
2022/12/05 07:28:40;;;;;;;162.85;108.70;;;179.50;2252.80;;;;;;5037784;28;20036;-90
2022/12/05 07:31:08;;;;;;;154.45;102.22;;;179.40;2252.80;;;;;;5038003;28;20033;-90
2022/12/05 07:33:35;;;;;;;206.35;131.98;;;179.50;2252.80;;;;;;5037890;28;20025;-90
2022/12/05 07:36:04;;;;;;;248.43;150.90;;;180.00;2252.80;;;;;;5036520;28;20045;-91
2022/12/05 07:38:30;;;;;;;177.05;116.00;;;179.40;2252.80;;;;;;5037876;28;20025;-90
2022/12/05 07:40:56;;;;;;;170.82;112.45;;;179.40;2252.80;;;;;;5037383;28;20028;-91
2022/12/05 07:43:22;;;;;;;154.15;102.70;;;179.30;2252.80;;;;;;5037512;28;20029;-90
2022/12/05 07:45:49;;;;;;;159.30;106.32;;;179.40;2252.80;;;;;;5037535;28;20116;-90
2022/12/05 07:48:15;;;;;;;193.60;126.18;;;179.60;2252.80;;;;;;5037399;28;20056;-90
2022/12/05 07:50:41;;;;;;;230.95;146.82;;;179.70;2252.80;;;;;;5037344;28;20547;-90
2022/12/05 07:53:06;;;;;;;224.63;146.25;;;179.80;2252.80;;;;;;5037623;28;20123;-89
2022/12/05 07:55:32;;;;;;;224.32;145.45;;;179.70;2252.80;;;;;;5037708;28;20065;-90
2022/12/05 07:57:58;;;;;;;219.93;140.60;;;179.80;2252.80;;;;;;5037257;28;20021;-90
2022/12/05 08:00:24;;;;;;;197.02;125.78;;;179.80;2252.80;;;;;;5037364;28;20057;-90
2022/12/05 08:02:50;;;;;;;180.88;118.07;;;179.90;2252.80;;;;;;5037440;28;20127;-90
2022/12/05 08:05:16;;;;;;;149.65;93.30;;;179.80;2252.80;;;;;;5037343;28;20066;-90
2022/12/05 08:07:41;;;;;;;115.32;74.60;;;179.80;2252.80;;;;;;5037261;28;20029;-89
2022/12/05 08:10:08;;;;;;;128.98;79.57;;;179.80;2252.80;;;;;;5037220;28;20025;-89
2022/12/05 08:12:33;;;;;;;111.80;72.03;;;180.00;2252.80;;;;;;5037636;28;20100;-89
2022/12/05 08:14:59;;;;;;;80.40;54.50;;;180.10;2252.80;;;;;;5037107;28;20100;-90
2022/12/05 08:17:28;;;;;;;79.28;50.53;;;180.10;2252.80;;;;;;5037174;28;20041;-90
2022/12/05 08:19:54;;;;;;;55.15;33.40;;;204.90;2252.80;;;;;;5037012;28;20388;-90
2022/12/05 08:22:20;;;;;;;47.20;32.72;;;204.80;2252.80;;;;;;5037240;28;20025;-91
2022/12/05 08:24:49;;;;;;;32.13;19.63;;;205.00;2252.80;;;;;;5036887;28;20032;-90
2022/12/05 08:27:15;;;;;;;47.85;31.23;;;204.80;2252.80;;;;;;5037746;28;20088;-90
2022/12/05 08:29:40;;;;;;;43.08;32.47;;;204.80;2252.80;;;;;;5037176;28;20441;-90
2022/12/05 08:32:06;;;;;;;43.47;30.25;;;204.90;2252.80;;;;;;5037096;28;20534;-90
2022/12/05 08:34:32;;;;;;;50.47;28.83;;;204.90;2252.80;;;;;;5036916;28;20070;-90
2022/12/05 08:36:58;;;;;;;289.98;161.63;;;204.90;2252.80;;;;;;5037800;28;20483;-89
2022/12/05 08:39:25;;;;;;;118.82;69.00;;;205.00;2252.80;;;;;;5037186;28;20028;-89
2022/12/05 08:41:51;;;;;;;34.55;23.20;;;205.10;2252.80;;;;;;5054151;28;20025;-88
2022/12/05 08:44:17;;;;;;;41.42;25.42;;;205.00;2252.80;;;;;;5036636;28;20032;-88
2022/12/05 08:46:45;;;;;;;38.85;25.85;;;205.20;2252.80;;;;;;5037046;28;20120;-89
2022/12/05 08:49:12;;;;;;;42.38;27.02;;;205.30;2252.80;;;;;;5036543;28;20052;-89
2022/12/05 08:51:38;;;;;;;41.88;23.52;;;205.40;2252.80;;;;;;5036371;28;20117;-89
2022/12/05 08:54:05;;;;;;;31.40;18.27;;;;;;;;;;5036346;28;20028;-90
2022/12/05 08:56:34;;;;;;;22.20;15.23;;;;;;;;;;5036551;28;20064;-89
2022/12/05 08:59:01;;;;;;;24.20;16.33;;;;;;;;;;5036299;28;20385;-88
2022/12/05 09:01:30;;;;;;;25.73;17.38;;;;;;;;;;5036539;28;20036;-90
2022/12/05 09:03:57;;;;;;;33.22;20.20;;;;;;;;;;5036363;28;20029;-89
2022/12/05 09:06:24;;;;;;;50.63;36.38;;;;;;;;;;5036211;28;20025;-89
2022/12/05 09:08:55;;;;;;;45.40;32.53;;;;;;;;;;5036712;28;20021;-89
2022/12/05 09:11:22;;;;;;;39.80;29.25;;;;;;;;;;5036402;28;20353;-89
2022/12/05 09:13:49;;;;;;;57.47;40.78;;;205.70;2252.80;;;;;;5036283;28;20021;-90
2022/12/05 09:16:17;;;;;;;58.40;43.08;;;205.50;2252.80;;;;;;5036308;28;20033;-90
2022/12/05 09:18:44;;;;;;;41.60;28.75;;;205.60;2252.80;;;;;;5036542;28;20469;-89
2022/12/05 09:21:22;;;;;;;44.58;30.75;;;205.70;2252.80;;;;;;5036116;28;20029;-89
2022/12/05 09:23:48;;;;;;;49.35;31.17;;;;;;;;;;5036415;28;20036;-88
2022/12/05 09:26:16;;;;;;;46.63;30.17;;;;;;;;;;5036119;28;20124;-90
2022/12/05 09:28:43;;;;;;;58.33;37.80;;;;;;;;;;5036980;28;20064;-89
2022/12/05 09:31:16;;;;;;;78.47;58.13;;;;;;;;;;5037426;28;20163;-90
2022/12/05 09:33:42;;;;;;;50.80;32.92;;;;;;;;;;5036929;28;20029;-90
2022/12/05 09:36:12;;;;;;;62.42;44.95;;;230.70;2252.80;;;;;;5036688;28;20120;-90
2022/12/05 09:38:38;;;;;;;46.70;32.03;;;230.60;2252.80;;;;;;5037263;28;20047;-92
2022/12/05 09:41:13;;;;;;;44.03;29.67;;;;;;;;;;5036470;28;20032;-89
2022/12/05 09:43:52;;;;;;;40.47;26.70;;;230.80;2252.80;;;;;;5036586;28;20021;-89
2022/12/05 09:46:41;;;;;;;44.97;28.95;;;230.80;2252.80;;;;;;5069455;28;20487;-88
2022/12/05 09:49:10;;;;;;;54.22;29.20;;;230.80;2252.80;;;;;;5026428;28;20033;-91
2022/12/05 09:51:40;;;;;;;41.70;27.92;;;230.90;2252.80;;;;;;5035962;28;20036;-90
2022/12/05 09:54:09;;;;;;;29.67;20.65;;;230.90;2252.80;;;;;;5036122;28;20128;-90
2022/12/05 09:56:37;;;;;;;33.10;22.15;;;230.90;2252.80;;;;;;5039255;28;20039;-90
2022/12/05 09:59:04;;;;;;;39.47;25.50;;;231.00;2252.80;;;;;;5039612;28;20025;-90
2022/12/05 10:02:00;;;;;;;53.58;36.63;;;231.10;2252.80;;;;;;5040107;28;20020;-90
2022/12/05 10:04:41;;;;;;;83.60;50.67;;;231.10;2252.80;;;;;;5028956;28;20037;-90
2022/12/05 10:07:10;;;;;;;160.07;94.53;;;;;;;;;;5039424;28;20530;-90
2022/12/05 10:10:14;;;;;;;80.07;52.38;;;256.10;2252.80;;;;;;5039112;28;20051;-85
2022/12/05 10:12:52;;;;;;;38.95;28.80;;;;;;;;;;5039180;28;20108;-90
2022/12/05 10:15:18;;;;;;;39.05;27.98;;;;;;;;;;5039565;28;20033;-90
2022/12/05 10:17:58;;;;;;;34.42;23.50;;;256.40;2252.80;;;;;;5039541;28;20032;-90
2022/12/05 10:20:40;;;;;;;28.77;21.48;;;256.20;2252.80;;;;;;5039692;28;20028;-90
2022/12/05 10:23:14;;;;;;;24.17;17.17;;;256.50;2252.80;;;;;;5057094;28;20025;-90
2022/12/05 10:25:41;;;;;;;20.52;14.80;;;256.40;2252.80;;;;;;5039209;28;20040;-90
2022/12/05 10:28:17;;;;;;;22.85;17.30;;;256.40;2252.80;;;;;;5039005;28;20064;-89
2022/12/05 10:30:47;;;;;;;28.35;20.63;;;256.40;2252.80;;;;;;5039240;28;20428;-90
2022/12/05 10:33:17;;;;;;;38.30;22.73;;;256.40;2252.80;;;;;;5056819;28;20028;-90
2022/12/05 10:35:43;;;;;;;35.35;20.67;;;256.40;2252.80;;;;;;5040012;28;20136;-90
2022/12/05 10:38:23;;;;;;;35.88;22.88;;;256.40;2252.80;;;;;;5039335;28;20527;-91
2022/12/05 10:40:58;;;;;;;40.72;24.60;;;256.50;2252.80;;;;;;5040477;28;20533;-92
2022/12/05 10:43:27;;;;;;;30.95;20.77;;;256.80;2252.80;;;;;;5040435;28;20404;-89
2022/12/05 10:45:54;;;;;;;29.35;19.55;;;256.70;2252.80;;;;;;5040417;28;20025;-92
2022/12/05 10:48:21;;;;;;;26.92;18.27;;;281.60;2278.40;;;;;;5040316;28;20083;-92
2022/12/05 10:50:50;;;;;;;26.27;16.67;;;282.00;2278.40;;;;;;5039574;28;20032;-92
2022/12/05 10:53:18;;;;;;;22.08;16.10;;;;;;;;;;5039090;28;20025;-92
2022/12/05 10:55:50;;;;;;;25.90;17.63;;;;;;;;;;5039662;28;20480;-90
2022/12/05 10:58:23;;;;;;;25.05;18.73;;;282.20;2278.40;;;;;;5051935;28;20025;-89
2022/12/05 11:00:57;;;;;;;38.63;27.88;;;282.00;2278.40;;;;;;5051808;28;20027;-89
2022/12/05 11:03:38;;;;;;;27.92;18.75;;;282.10;2278.40;;;;;;5070951;28;20055;-90
2022/12/05 11:06:36;;;;;;;19.50;14.18;;;282.30;2278.40;;;;;;5053954;28;20049;-90
2022/12/05 11:09:17;;;;;;;21.65;15.15;;;282.20;2278.40;;;;;;5015719;28;20023;-90
2022/12/05 11:12:02;;;;;;;24.80;18.15;;;282.30;2278.40;;;;;;5062987;28;20009;-86
2022/12/05 11:14:30;;;;;;;34.78;25.05;;;282.30;2278.40;;;;;;5062635;28;20116;-89
2022/12/05 11:16:57;;;;;;;27.52;18.33;;;282.20;2278.40;;;;;;5051739;28;20037;-90
2022/12/05 11:19:30;;;;;;;24.80;16.15;;;282.40;2278.40;;;;;;5039390;28;20025;-91
2022/12/05 11:21:56;;;;;;;19.15;14.90;;;;;;;;;;5039289;28;20033;-91
2022/12/05 11:24:26;;;;;;;25.20;16.98;;;;;;;;;;5039198;28;20112;-91
2022/12/05 11:26:53;;;;;;;22.95;16.58;;;;;;;;;;5040085;28;20024;-92
2022/12/05 11:29:28;;;;;;;23.27;17.13;;;;;;;;;;5038605;28;20024;-92
2022/12/05 11:31:54;;;;;;;25.20;16.42;;;;;;;;;;5038675;28;20070;-91
2022/12/05 11:34:22;;;;;;;25.58;18.52;;;;;;;;;;5038183;28;20045;-92
2022/12/05 11:36:55;;;;;;;25.88;15.75;;;;;;;;;;5024897;28;20455;-90
2022/12/05 11:39:21;;;;;;;18.80;13.75;;;;;;;;;;5020048;28;20022;-92
2022/12/05 11:42:10;;;;;;;21.10;14.43;;;;;;;;;;5019341;28;20052;-92
2022/12/05 11:44:56;;;;;;;27.80;20.38;;;;;;;;;;5017148;28;20488;-91
2022/12/05 11:47:42;;;;;;;34.67;26.05;;;;;;;;;;5039260;28;20021;-92
2022/12/05 11:50:18;;;;;;;60.53;42.40;;;;;;;;;;5027925;28;20033;-91
2022/12/05 11:52:50;;;;;;;49.35;35.65;;;358.40;2329.60;;;;;;5038768;28;20032;-89
2022/12/05 11:55:23;;;;;;;35.20;27.38;;;333.70;2329.60;;;;;;5038008;28;20370;-88
2022/12/05 11:57:59;;;;;;;26.00;21.48;;;358.60;2329.60;;;;;;5037714;28;20021;-89
2022/12/05 12:00:52;;;;;;;24.13;18.58;;;358.70;2329.60;;;;;;5038026;28;20107;-90
2022/12/05 12:03:44;;;;;;;29.00;22.95;;;358.50;2329.60;;;;;;5039941;28;20032;-90
2022/12/05 12:06:44;;;;;;;29.50;23.88;;;358.50;2329.60;;;;;;5038456;28;20032;-90
2022/12/05 12:09:32;;;;;;;32.83;21.90;;;358.50;2329.60;;;;;;5038891;28;20036;-87
2022/12/05 12:12:42;;;;;;;39.58;25.25;;;358.70;2329.60;;;;;;5039131;28;20029;-86
2022/12/05 12:15:29;;;;;;;25.27;16.45;;;358.90;2329.60;;;;;;5031838;28;20037;-88
2022/12/05 12:18:13;;;;;;;24.02;17.77;;;358.80;2329.60;;;;;;5037652;28;20491;-86
2022/12/05 12:21:14;;;;;;;26.52;17.92;;;358.70;2329.60;;;;;;5038723;28;20043;-85
2022/12/05 12:23:55;;;;;;;31.45;26.55;;;358.80;2329.60;;;;;;5008200;28;20029;-87
2022/12/05 12:26:45;;;;;;;29.75;23.13;;;358.70;2329.60;;;;;;5039360;28;20123;-86
2022/12/05 12:30:02;;;;;;;23.70;14.65;;;358.70;2329.60;;;;;;5037948;28;20029;-84
2022/12/05 12:32:54;;;;;;;29.20;15.65;;;358.50;2329.60;;;;;;4974087;28;20082;-83
2022/12/05 12:35:30;;;;;;;28.60;20.80;;;358.50;2329.60;;;;;;5034103;28;20048;-84
2022/12/05 12:38:34;;;;;;;29.42;20.75;;;358.60;2329.60;;;;;;5054550;28;20049;-84
2022/12/05 12:41:21;;;;;;;22.10;16.50;;;358.60;2329.60;;;;;;5037948;28;20116;-85